Time;durP1;ratioP1;P1;durP2;ratioP2;P2;SDS_P1;SDS_P2;PMS_P1;PMS_P2;Temp;Humidity;BMP_temperature;BMP_pressure;BME280_temperature;BME280_humidity;BME280_pressure;Samples;Min_cycle;Max_cycle;Signal;HPM_P1;HPM_P2
2021/05/10 00:01:29;;;;;;;0.60;0.50;;;23.20;43.00;;;;;;5047861;28;20127;-60
2021/05/10 00:03:54;;;;;;;0.98;0.70;;;23.20;43.00;;;;;;5049072;28;20277;-61
2021/05/10 00:06:20;;;;;;;1.48;0.60;;;23.20;43.00;;;;;;5047102;28;20483;-60
2021/05/10 00:08:47;;;;;;;1.10;0.68;;;23.20;43.00;;;;;;5047453;28;20035;-61
2021/05/10 00:11:13;;;;;;;0.88;0.70;;;23.20;43.00;;;;;;5046016;28;20500;-61
2021/05/10 00:13:43;;;;;;;0.77;0.63;;;23.20;43.00;;;;;;5045536;28;20031;-62
2021/05/10 00:16:09;;;;;;;1.15;0.60;;;23.20;43.00;;;;;;5042963;28;20032;-60
2021/05/10 00:18:34;;;;;;;1.15;0.63;;;23.20;43.00;;;;;;5042396;28;20532;-62
2021/05/10 00:21:00;;;;;;;0.55;0.50;;;23.20;43.00;;;;;;5045911;28;20087;-60
2021/05/10 00:23:25;;;;;;;1.60;0.68;;;23.20;43.00;;;;;;5046754;28;20416;-60
2021/05/10 00:25:51;;;;;;;0.98;0.57;;;23.20;43.00;;;;;;5028061;28;20033;-61
2021/05/10 00:28:17;;;;;;;1.48;0.60;;;23.20;43.00;;;;;;5042847;28;20484;-60
2021/05/10 00:30:42;;;;;;;0.82;0.70;;;23.20;43.00;;;;;;5047185;28;20053;-62
2021/05/10 00:33:08;;;;;;;1.13;0.70;;;23.20;43.00;;;;;;5045917;28;20033;-61
2021/05/10 00:35:34;;;;;;;0.88;0.50;;;23.10;42.90;;;;;;5046425;28;20021;-61
2021/05/10 00:38:00;;;;;;;0.70;0.60;;;23.20;43.50;;;;;;5040253;28;20407;-60
2021/05/10 00:40:29;;;;;;;0.93;0.60;;;23.10;42.90;;;;;;5045456;28;20032;-62
2021/05/10 00:42:55;;;;;;;1.58;0.68;;;23.10;42.90;;;;;;5048099;28;20452;-60
2021/05/10 00:45:21;;;;;;;0.98;0.70;;;23.10;42.90;;;;;;5032975;28;20057;-60
2021/05/10 00:47:47;;;;;;;1.50;0.60;;;23.10;42.90;;;;;;5040832;28;20029;-61
2021/05/10 00:50:14;;;;;;;1.45;0.70;;;23.10;43.40;;;;;;5047664;28;20025;-59
2021/05/10 00:52:40;;;;;;;1.25;0.65;;;23.10;42.90;;;;;;5042819;28;20515;-62
2021/05/10 00:55:08;;;;;;;1.13;0.60;;;23.10;42.90;;;;;;5033760;28;20380;-62
2021/05/10 00:57:38;;;;;;;1.13;0.60;;;23.10;42.90;;;;;;5044331;28;20033;-62
2021/05/10 01:00:06;;;;;;;0.90;0.60;;;23.10;43.20;;;;;;5046345;28;20431;-61
2021/05/10 01:02:32;;;;;;;0.82;0.60;;;23.10;42.90;;;;;;5043514;28;20039;-62
2021/05/10 01:04:58;;;;;;;1.00;0.52;;;23.10;42.90;;;;;;5038475;28;20044;-61
2021/05/10 01:07:24;;;;;;;0.60;0.60;;;23.10;42.90;;;;;;5044105;28;20029;-62
2021/05/10 01:09:49;;;;;;;0.63;0.50;;;23.10;42.90;;;;;;5044154;28;20040;-61
2021/05/10 01:12:15;;;;;;;1.08;0.70;;;23.10;42.90;;;;;;5046706;28;20032;-59
2021/05/10 01:14:40;;;;;;;1.20;0.60;;;23.10;42.90;;;;;;5047097;28;20032;-61
2021/05/10 01:17:06;;;;;;;0.88;0.60;;;23.10;42.90;;;;;;5042435;28;20372;-63
2021/05/10 01:19:34;;;;;;;1.25;0.60;;;23.10;42.90;;;;;;5047701;28;20060;-60
2021/05/10 01:22:03;;;;;;;0.80;0.60;;;23.10;42.90;;;;;;5038420;28;20533;-60
2021/05/10 01:24:29;;;;;;;0.60;0.50;;;23.10;42.90;;;;;;5041621;28;20033;-60
2021/05/10 01:26:55;;;;;;;0.43;0.43;;;23.00;42.90;;;;;;5044025;28;20170;-61
2021/05/10 01:29:21;;;;;;;1.02;0.63;;;23.10;42.90;;;;;;5042131;28;20100;-61
2021/05/10 01:31:47;;;;;;;0.65;0.60;;;23.10;42.90;;;;;;5027861;28;20041;-61
2021/05/10 01:34:13;;;;;;;0.63;0.60;;;23.10;42.90;;;;;;5041272;28;20037;-61
2021/05/10 01:36:39;;;;;;;1.00;0.60;;;23.10;42.90;;;;;;5036148;28;20364;-60
2021/05/10 01:39:05;;;;;;;0.75;0.65;;;23.00;42.80;;;;;;5041689;28;20045;-61
2021/05/10 01:41:31;;;;;;;0.65;0.55;;;23.10;42.90;;;;;;5039611;28;20032;-61
2021/05/10 01:43:56;;;;;;;0.82;0.52;;;23.00;42.90;;;;;;5031666;28;20030;-61
2021/05/10 01:46:22;;;;;;;0.95;0.60;;;23.00;42.90;;;;;;5027629;28;20120;-62
2021/05/10 01:48:47;;;;;;;0.88;0.57;;;23.00;42.90;;;;;;5046536;28;20041;-61
2021/05/10 01:51:13;;;;;;;0.88;0.60;;;23.00;42.80;;;;;;5037368;28;20029;-61
2021/05/10 01:53:39;;;;;;;0.63;0.50;;;23.00;42.90;;;;;;5035607;28;20021;-61
2021/05/10 01:56:04;;;;;;;1.17;0.70;;;23.00;42.90;;;;;;5042107;28;20113;-61
2021/05/10 01:58:30;;;;;;;1.10;0.60;;;23.00;42.90;;;;;;5041979;28;20475;-60
2021/05/10 02:00:56;;;;;;;0.90;0.63;;;23.00;42.90;;;;;;5029385;28;20116;-60
2021/05/10 02:03:22;;;;;;;1.17;0.60;;;23.00;42.90;;;;;;5028820;28;20021;-60
2021/05/10 02:05:50;;;;;;;1.38;0.70;;;23.00;42.90;;;;;;5032528;28;20044;-61
2021/05/10 02:08:17;;;;;;;0.85;0.60;;;23.00;42.90;;;;;;5027590;28;20053;-59
2021/05/10 02:10:46;;;;;;;0.50;0.47;;;23.00;42.90;;;;;;5025956;28;20029;-60
2021/05/10 02:13:19;;;;;;;0.45;0.45;;;23.00;42.90;;;;;;5043704;28;20342;-61
2021/05/10 02:15:50;;;;;;;0.93;0.60;;;23.00;42.90;;;;;;5041984;28;20115;-59
2021/05/10 02:18:19;;;;;;;0.77;0.60;;;23.00;42.90;;;;;;5044567;28;20135;-61
2021/05/10 02:20:46;;;;;;;1.15;0.60;;;22.90;42.80;;;;;;5045152;28;20032;-60
2021/05/10 02:23:14;;;;;;;1.20;0.73;;;23.00;43.00;;;;;;5042425;28;20082;-60
2021/05/10 02:25:41;;;;;;;0.50;0.50;;;23.00;42.90;;;;;;5040750;28;20141;-61
2021/05/10 02:28:09;;;;;;;0.70;0.63;;;22.90;42.80;;;;;;5045159;28;20068;-60
2021/05/10 02:30:36;;;;;;;0.80;0.50;;;22.90;42.90;;;;;;5036786;28;20033;-60
2021/05/10 02:33:05;;;;;;;0.93;0.60;;;22.90;42.90;;;;;;5043395;28;20040;-62
2021/05/10 02:35:31;;;;;;;0.75;0.55;;;22.90;42.90;;;;;;5042969;28;20032;-62
2021/05/10 02:37:57;;;;;;;0.60;0.60;;;22.90;42.90;;;;;;5029735;28;20033;-60
2021/05/10 02:40:24;;;;;;;0.82;0.60;;;22.90;42.90;;;;;;5025242;28;20132;-60
2021/05/10 02:42:50;;;;;;;0.70;0.50;;;22.90;42.90;;;;;;5032756;28;20203;-60
2021/05/10 02:45:17;;;;;;;1.70;0.63;;;22.90;42.90;;;;;;5044870;28;20037;-60
2021/05/10 02:47:44;;;;;;;0.40;0.40;;;22.90;42.90;;;;;;5044015;28;20114;-61
2021/05/10 02:50:12;;;;;;;0.63;0.60;;;22.90;42.90;;;;;;5043851;28;20029;-60
2021/05/10 02:52:38;;;;;;;0.60;0.60;;;22.90;42.90;;;;;;5044182;28;20028;-59
2021/05/10 02:55:05;;;;;;;1.00;0.50;;;22.90;42.90;;;;;;5034545;28;20032;-61
2021/05/10 02:57:31;;;;;;;0.82;0.50;;;22.90;42.90;;;;;;5043806;28;20443;-60
2021/05/10 02:59:57;;;;;;;0.60;0.60;;;22.80;42.90;;;;;;5044308;28;20025;-61
2021/05/10 03:02:22;;;;;;;1.10;0.60;;;22.80;42.90;;;;;;5037717;28;20037;-60
2021/05/10 03:04:49;;;;;;;1.02;0.60;;;22.80;42.80;;;;;;5042122;28;20151;-61
2021/05/10 03:07:15;;;;;;;0.90;0.68;;;22.80;42.90;;;;;;5033989;28;20112;-61
2021/05/10 03:09:40;;;;;;;1.10;0.60;;;22.80;42.80;;;;;;5037067;28;20570;-62
2021/05/10 03:12:07;;;;;;;0.82;0.73;;;22.80;42.80;;;;;;5044230;28;20057;-60
2021/05/10 03:14:32;;;;;;;1.02;0.50;;;22.80;43.10;;;;;;5028702;28;20069;-62
2021/05/10 03:16:58;;;;;;;1.08;0.70;;;22.80;42.80;;;;;;5037084;28;20040;-60
2021/05/10 03:19:23;;;;;;;0.63;0.63;;;22.80;42.90;;;;;;5045078;28;20535;-61
2021/05/10 03:21:49;;;;;;;1.17;0.82;;;22.80;42.90;;;;;;5043741;28;20024;-62
2021/05/10 03:24:14;;;;;;;1.15;0.50;;;22.80;42.90;;;;;;5036770;28;20101;-61
2021/05/10 03:26:41;;;;;;;1.02;0.60;;;22.80;42.90;;;;;;5040741;28;20033;-60
2021/05/10 03:29:08;;;;;;;0.90;0.68;;;22.80;42.90;;;;;;5041363;28;20065;-60
2021/05/10 03:31:34;;;;;;;0.93;0.60;;;22.80;42.90;;;;;;5037736;28;20115;-60
2021/05/10 03:34:00;;;;;;;1.75;0.70;;;22.80;42.90;;;;;;5041017;28;20033;-61
2021/05/10 03:36:27;;;;;;;0.60;0.57;;;22.80;42.90;;;;;;5040516;28;20036;-61
2021/05/10 03:38:52;;;;;;;0.52;0.52;;;22.80;42.90;;;;;;5029137;28;20116;-63
2021/05/10 03:41:18;;;;;;;0.82;0.50;;;22.80;42.90;;;;;;5039510;28;20091;-60
2021/05/10 03:43:44;;;;;;;0.50;0.50;;;22.80;42.90;;;;;;5045626;28;20033;-61
2021/05/10 03:46:10;;;;;;;0.98;0.60;;;22.80;42.90;;;;;;5031834;28;20594;-60
2021/05/10 03:48:36;;;;;;;1.17;0.70;;;22.70;42.90;;;;;;5038593;28;20095;-60
2021/05/10 03:51:01;;;;;;;0.73;0.60;;;22.80;42.90;;;;;;5043744;28;20037;-60
2021/05/10 03:53:28;;;;;;;0.85;0.60;;;22.70;43.40;;;;;;5037130;28;20029;-62
2021/05/10 03:55:53;;;;;;;0.75;0.60;;;22.70;42.90;;;;;;5028470;28;20651;-61
2021/05/10 03:58:19;;;;;;;1.75;0.60;;;22.70;42.90;;;;;;5037453;28;20140;-60
2021/05/10 04:00:45;;;;;;;0.52;0.50;;;22.70;42.90;;;;;;5032903;28;20152;-62
2021/05/10 04:03:13;;;;;;;0.65;0.65;;;22.70;42.90;;;;;;5045150;28;20025;-60
2021/05/10 04:13:47;;;;;;;0.60;0.60;;;22.70;42.90;;;;;;5031101;28;20413;-59
2021/05/10 04:16:13;;;;;;;0.73;0.60;;;22.70;42.90;;;;;;5042669;28;20414;-56
2021/05/10 04:18:38;;;;;;;0.75;0.50;;;22.70;43.00;;;;;;5030548;28;20036;-60
2021/05/10 04:21:04;;;;;;;0.65;0.60;;;22.70;43.00;;;;;;5030143;28;20460;-56
2021/05/10 04:23:30;;;;;;;0.77;0.60;;;22.70;42.90;;;;;;5044486;28;20091;-58
2021/05/10 04:25:56;;;;;;;0.45;0.45;;;22.70;42.90;;;;;;5032195;28;20033;-61
2021/05/10 04:28:23;;;;;;;0.50;0.50;;;22.70;42.90;;;;;;5042941;28;20106;-60
2021/05/10 04:30:51;;;;;;;0.63;0.60;;;22.70;43.00;;;;;;5042723;28;20054;-60
2021/05/10 04:33:25;;;;;;;0.57;0.50;;;22.70;43.00;;;;;;5047718;28;20097;-59
2021/05/10 04:35:51;;;;;;;0.70;0.60;;;22.60;43.00;;;;;;5038201;28;20025;-60
2021/05/10 04:38:16;;;;;;;1.98;0.60;;;22.60;42.90;;;;;;5046665;28;20029;-62
2021/05/10 04:40:42;;;;;;;0.57;0.50;;;22.60;43.00;;;;;;5046390;28;20033;-59
2021/05/10 04:43:08;;;;;;;0.98;0.68;;;22.60;43.00;;;;;;5049266;28;20486;-62
2021/05/10 04:45:34;;;;;;;0.65;0.60;;;22.60;43.00;;;;;;5046010;28;20186;-60
2021/05/10 04:47:59;;;;;;;0.57;0.50;;;22.60;43.00;;;;;;5046283;28;20033;-60
2021/05/10 04:50:25;;;;;;;1.05;0.65;;;22.60;43.10;;;;;;5043196;28;20036;-61
2021/05/10 04:52:50;;;;;;;0.77;0.60;;;22.60;43.10;;;;;;5038428;28;20074;-58
2021/05/10 04:55:16;;;;;;;0.95;0.70;;;22.60;43.20;;;;;;5037909;28;20109;-61
2021/05/10 04:57:44;;;;;;;1.88;0.68;;;22.60;43.20;;;;;;5049883;28;20067;-61
2021/05/10 05:00:12;;;;;;;1.02;0.63;;;22.60;43.30;;;;;;5045205;28;20234;-61
2021/05/10 05:02:38;;;;;;;1.00;0.70;;;22.60;43.40;;;;;;5030589;28;20032;-61
2021/05/10 05:05:07;;;;;;;0.85;0.63;;;22.60;43.40;;;;;;5048642;28;20518;-62
2021/05/10 05:07:32;;;;;;;1.40;0.80;;;22.60;43.50;;;;;;5048380;28;20037;-60
2021/05/10 05:09:58;;;;;;;1.25;0.70;;;22.60;43.50;;;;;;5041158;28;20051;-60
2021/05/10 05:12:24;;;;;;;0.80;0.68;;;22.60;43.50;;;;;;5048167;28;20033;-60
2021/05/10 05:14:49;;;;;;;1.13;0.70;;;22.60;43.50;;;;;;5048401;28;20079;-60
2021/05/10 05:17:15;;;;;;;1.20;0.90;;;22.60;43.50;;;;;;5036161;28;20029;-60
2021/05/10 05:19:41;;;;;;;1.83;0.75;;;22.60;44.10;;;;;;5038783;28;20115;-60
2021/05/10 05:22:07;;;;;;;0.98;0.70;;;22.60;43.60;;;;;;5037973;28;20079;-60
2021/05/10 05:24:34;;;;;;;0.70;0.70;;;22.60;43.50;;;;;;5045693;28;20477;-60
2021/05/10 05:26:59;;;;;;;1.30;0.70;;;22.60;43.60;;;;;;5032950;28;20050;-59
2021/05/10 05:29:25;;;;;;;1.38;0.70;;;22.50;44.00;;;;;;5047896;28;20410;-60
2021/05/10 05:31:51;;;;;;;1.33;0.77;;;22.50;43.50;;;;;;5047680;28;20109;-59
2021/05/10 05:34:18;;;;;;;1.10;0.70;;;22.50;43.50;;;;;;5046345;28;20051;-58
2021/05/10 05:36:43;;;;;;;0.98;0.80;;;22.50;43.60;;;;;;5047010;28;20973;-59
2021/05/10 05:39:09;;;;;;;1.35;0.80;;;22.50;43.50;;;;;;5044501;28;20055;-61
2021/05/10 05:41:35;;;;;;;0.88;0.70;;;22.50;43.60;;;;;;5043572;28;20456;-58
2021/05/10 05:44:05;;;;;;;2.05;0.80;;;22.50;43.60;;;;;;5045502;28;20056;-60
2021/05/10 05:46:37;;;;;;;0.95;0.70;;;22.50;43.60;;;;;;5046471;28;20034;-60
2021/05/10 05:49:02;;;;;;;1.25;0.82;;;22.50;43.60;;;;;;5046750;28;20127;-58
2021/05/10 05:51:28;;;;;;;1.40;0.77;;;22.50;43.60;;;;;;5044752;28;20108;-60
2021/05/10 05:53:55;;;;;;;1.20;0.80;;;22.50;43.60;;;;;;5037776;28;20032;-60
2021/05/10 05:56:21;;;;;;;1.75;0.77;;;22.50;43.60;;;;;;5039917;28;20428;-60
2021/05/10 05:58:48;;;;;;;1.27;0.80;;;22.50;43.70;;;;;;5043239;28;20025;-60
2021/05/10 06:01:14;;;;;;;1.23;0.85;;;22.50;43.70;;;;;;5037816;28;20076;-60
2021/05/10 06:03:40;;;;;;;1.60;0.88;;;22.50;43.70;;;;;;5030702;28;20049;-60
2021/05/10 06:06:05;;;;;;;1.90;0.90;;;22.50;43.70;;;;;;5038018;28;20033;-54
2021/05/10 06:08:31;;;;;;;2.70;1.05;;;22.50;43.70;;;;;;5027808;28;20033;-57
2021/05/10 06:10:57;;;;;;;1.02;0.70;;;22.50;44.20;;;;;;5039517;28;20033;-59
2021/05/10 06:13:23;;;;;;;0.80;0.60;;;22.60;44.20;;;;;;5043320;28;20489;-60
2021/05/10 06:15:48;;;;;;;1.60;0.80;;;22.60;44.00;;;;;;5028000;28;20033;-60
2021/05/10 06:18:14;;;;;;;0.77;0.70;;;22.80;43.80;;;;;;5033358;28;20017;-60
2021/05/10 06:20:40;;;;;;;1.85;0.90;;;22.90;43.70;;;;;;5032346;28;20059;-60
2021/05/10 06:23:06;;;;;;;1.98;0.90;;;23.00;43.50;;;;;;5045345;28;20128;-61
2021/05/10 06:25:32;;;;;;;1.95;0.90;;;23.10;43.10;;;;;;5043374;28;20486;-61
2021/05/10 06:27:57;;;;;;;1.73;0.90;;;23.20;43.00;;;;;;5035981;28;20025;-61
2021/05/10 06:30:23;;;;;;;1.70;0.80;;;23.30;43.00;;;;;;5042835;28;20033;-60
2021/05/10 06:32:53;;;;;;;1.45;0.90;;;23.40;42.70;;;;;;5046548;28;20056;-59
2021/05/10 06:35:19;;;;;;;2.88;1.10;;;23.50;42.70;;;;;;5033783;28;20329;-59
2021/05/10 06:37:45;;;;;;;1.55;0.80;;;23.50;42.40;;;;;;5044596;28;20083;-59
2021/05/10 06:40:11;;;;;;;1.27;0.80;;;23.50;42.30;;;;;;5042053;28;20495;-57
2021/05/10 06:42:36;;;;;;;2.03;0.73;;;23.50;42.30;;;;;;5028905;28;20167;-58
2021/05/10 06:45:05;;;;;;;2.10;1.00;;;23.50;42.30;;;;;;5056924;28;20073;-59
2021/05/10 06:47:32;;;;;;;2.92;1.13;;;23.50;42.30;;;;;;5048683;28;20041;-59
2021/05/10 06:49:57;;;;;;;2.20;1.10;;;23.50;42.30;;;;;;5028828;28;20038;-57
2021/05/10 06:52:23;;;;;;;1.23;0.80;;;23.50;42.30;;;;;;5039029;28;20489;-59
2021/05/10 06:54:48;;;;;;;1.55;0.90;;;23.50;42.30;;;;;;5043822;28;20045;-58
2021/05/10 06:57:14;;;;;;;1.20;0.70;;;23.60;42.40;;;;;;5040549;28;20051;-58
2021/05/10 06:59:40;;;;;;;1.42;0.98;;;23.60;42.90;;;;;;5045769;28;20448;-59
2021/05/10 07:02:09;;;;;;;1.00;0.80;;;23.60;42.30;;;;;;5040995;28;20042;-59
2021/05/10 07:04:34;;;;;;;1.90;0.90;;;23.60;42.30;;;;;;5042892;28;20188;-58
2021/05/10 07:07:00;;;;;;;1.65;0.90;;;23.60;42.20;;;;;;5025932;28;20037;-58
2021/05/10 07:09:25;;;;;;;1.50;0.85;;;23.60;42.20;;;;;;5026917;28;20022;-59
2021/05/10 07:11:51;;;;;;;1.15;0.80;;;23.70;42.20;;;;;;5030980;28;20044;-60
2021/05/10 07:14:17;;;;;;;1.10;0.90;;;23.70;42.20;;;;;;5045293;28;20411;-59
2021/05/10 07:16:43;;;;;;;0.90;0.70;;;23.70;42.20;;;;;;5045052;28;20033;-59
2021/05/10 07:19:08;;;;;;;1.85;0.80;;;23.70;42.10;;;;;;5045926;28;20654;-59
2021/05/10 07:21:34;;;;;;;0.90;0.80;;;23.70;42.60;;;;;;5043859;28;20024;-58
2021/05/10 07:24:00;;;;;;;2.35;1.23;;;23.80;42.70;;;;;;5028063;28;20033;-59
2021/05/10 07:26:25;;;;;;;1.27;0.80;;;23.70;42.10;;;;;;5029858;28;20116;-58
2021/05/10 07:28:51;;;;;;;1.42;0.80;;;23.80;42.10;;;;;;5044196;28;20032;-59
2021/05/10 07:31:17;;;;;;;1.30;0.73;;;23.90;42.10;;;;;;5041710;28;20045;-55
2021/05/10 07:33:42;;;;;;;1.95;0.90;;;23.90;42.10;;;;;;5038118;28;20056;-58
2021/05/10 07:36:08;;;;;;;1.42;0.80;;;23.90;42.10;;;;;;5030956;28;20032;-59
2021/05/10 07:38:34;;;;;;;1.27;0.80;;;23.90;42.00;;;;;;5044449;28;20029;-59
2021/05/10 07:41:00;;;;;;;0.98;0.70;;;23.90;42.00;;;;;;5033311;28;20038;-59
2021/05/10 07:43:25;;;;;;;1.20;0.80;;;23.90;42.00;;;;;;5028825;28;20025;-60
2021/05/10 07:45:51;;;;;;;1.80;0.80;;;23.90;41.90;;;;;;5044567;28;20025;-60
2021/05/10 07:48:17;;;;;;;2.28;1.00;;;24.00;42.00;;;;;;5045218;28;20044;-58
2021/05/10 07:50:42;;;;;;;1.35;1.00;;;24.00;42.00;;;;;;5044554;28;20029;-58
2021/05/10 07:53:09;;;;;;;1.17;0.85;;;24.00;42.00;;;;;;5036637;28;20033;-60
2021/05/10 07:55:36;;;;;;;2.08;0.80;;;24.00;42.00;;;;;;5036395;28;20215;-59
2021/05/10 07:58:02;;;;;;;1.58;0.80;;;24.00;42.00;;;;;;5032257;28;20033;-58
2021/05/10 08:00:33;;;;;;;1.42;0.90;;;24.00;42.00;;;;;;5041134;28;20518;-60
2021/05/10 08:03:10;;;;;;;1.40;0.80;;;24.10;42.00;;;;;;5029005;28;20029;-58
2021/05/10 08:05:38;;;;;;;1.77;0.98;;;24.10;42.00;;;;;;5043183;28;20522;-57
2021/05/10 08:08:04;;;;;;;1.35;0.80;;;24.10;41.90;;;;;;5040012;28;20033;-59
2021/05/10 08:10:31;;;;;;;1.30;0.93;;;24.10;41.90;;;;;;5035872;28;20052;-58
2021/05/10 08:12:57;;;;;;;1.20;0.70;;;24.10;42.50;;;;;;5044660;28;20036;-58
2021/05/10 08:15:23;;;;;;;1.23;0.80;;;24.20;41.90;;;;;;5036922;28;20110;-58
2021/05/10 08:17:48;;;;;;;1.42;0.93;;;24.20;42.00;;;;;;5041908;28;20401;-60
2021/05/10 08:20:15;;;;;;;1.40;0.90;;;24.20;41.90;;;;;;5045394;28;20507;-57
2021/05/10 08:22:42;;;;;;;1.23;0.80;;;24.20;42.00;;;;;;5047852;28;20039;-56
2021/05/10 08:25:09;;;;;;;1.80;1.00;;;24.20;41.90;;;;;;5046472;28;20060;-59
2021/05/10 08:27:35;;;;;;;1.38;0.80;;;24.20;41.90;;;;;;5041502;28;20056;-58
2021/05/10 08:30:03;;;;;;;2.45;0.98;;;24.30;42.00;;;;;;5043277;28;20554;-58
2021/05/10 08:32:29;;;;;;;1.02;0.80;;;24.30;42.00;;;;;;5036374;28;20064;-59
2021/05/10 08:34:54;;;;;;;1.15;0.73;;;24.30;42.50;;;;;;5039918;28;20120;-59
2021/05/10 08:37:21;;;;;;;0.98;0.73;;;24.30;41.90;;;;;;5039474;28;20424;-59
2021/05/10 08:39:46;;;;;;;0.85;0.70;;;24.30;41.90;;;;;;5029537;28;20025;-57
2021/05/10 08:42:12;;;;;;;0.77;0.75;;;24.30;41.80;;;;;;5037210;28;20604;-58
2021/05/10 08:44:38;;;;;;;1.00;0.73;;;24.30;41.80;;;;;;5040893;28;20116;-58
2021/05/10 08:47:04;;;;;;;1.60;0.70;;;24.30;41.80;;;;;;5033962;28;20037;-58
2021/05/10 08:49:30;;;;;;;1.10;0.70;;;24.30;41.80;;;;;;5034940;28;20407;-58
2021/05/10 08:51:55;;;;;;;1.20;0.70;;;24.30;41.80;;;;;;5044033;28;20025;-59
2021/05/10 08:54:25;;;;;;;1.02;0.80;;;24.40;41.90;;;;;;5039569;28;20595;-60
2021/05/10 08:56:50;;;;;;;;;;;24.30;41.80;;;;;;5036961;28;20044;-58
2021/05/10 08:59:27;;;;;;;1.45;0.80;;;24.40;41.90;;;;;;5028514;28;19913;-57
2021/05/10 09:01:55;;;;;;;1.30;0.88;;;24.40;41.80;;;;;;5030423;28;20041;-59
2021/05/10 09:04:41;;;;;;;1.05;0.70;;;24.40;41.80;;;;;;5041308;28;20072;-59
2021/05/10 09:07:18;;;;;;;1.02;0.80;;;24.40;41.80;;;;;;5042129;28;20480;-60
2021/05/10 09:10:10;;;;;;;2.40;0.80;;;24.40;41.80;;;;;;5027199;28;20025;-58
2021/05/10 09:12:41;;;;;;;1.02;0.63;;;24.40;41.80;;;;;;5029032;28;20110;-57
2021/05/10 09:15:27;;;;;;;1.20;0.70;;;24.40;41.80;;;;;;5033365;28;20384;-56
2021/05/10 09:17:56;;;;;;;0.80;0.80;;;24.40;41.90;;;;;;5027175;28;20036;-59
2021/05/10 09:20:28;;;;;;;2.20;0.93;;;24.50;41.90;;;;;;5033896;28;20099;-58
2021/05/10 09:22:56;;;;;;;1.95;0.90;;;24.50;41.90;;;;;;5038234;28;20034;-59
2021/05/10 09:25:35;;;;;;;1.58;0.93;;;24.50;42.00;;;;;;5038245;28;20036;-59
2021/05/10 09:28:20;;;;;;;2.42;0.90;;;24.50;42.00;;;;;;5042851;28;20120;-60
2021/05/10 09:31:02;;;;;;;1.38;0.82;;;24.50;42.20;;;;;;5035853;28;20360;-59
2021/05/10 09:33:28;;;;;;;1.55;0.80;;;24.50;42.40;;;;;;5033951;28;20033;-60
2021/05/10 09:35:55;;;;;;;1.77;0.80;;;24.60;42.30;;;;;;5031616;28;20021;-58
2021/05/10 09:38:23;;;;;;;1.88;1.10;;;24.50;42.20;;;;;;5034419;28;20045;-60
2021/05/10 09:40:50;;;;;;;1.20;0.90;;;24.60;42.20;;;;;;5030584;28;20310;-59
2021/05/10 09:43:24;;;;;;;1.45;0.98;;;24.60;42.20;;;;;;5029946;28;20086;-61
2021/05/10 09:45:54;;;;;;;0.90;0.73;;;24.60;42.20;;;;;;5043951;28;20036;-61
2021/05/10 09:48:24;;;;;;;1.50;0.80;;;24.60;42.20;;;;;;5044377;28;20052;-60
2021/05/10 09:50:55;;;;;;;1.30;0.90;;;24.60;42.30;;;;;;5035553;28;20033;-59
2021/05/10 09:53:34;;;;;;;1.33;0.82;;;24.60;42.20;;;;;;5042633;28;20025;-59
2021/05/10 09:56:00;;;;;;;1.08;0.90;;;24.60;42.20;;;;;;5035428;28;20035;-60
2021/05/10 09:58:44;;;;;;;1.27;0.70;;;24.60;42.20;;;;;;5038189;28;20021;-59
2021/05/10 10:01:10;;;;;;;1.10;0.70;;;24.60;42.10;;;;;;5040091;28;20025;-61
2021/05/10 10:03:43;;;;;;;1.92;1.00;;;24.60;42.10;;;;;;5037099;28;20063;-60
2021/05/10 10:06:16;;;;;;;1.10;0.80;;;24.70;42.10;;;;;;5040093;28;20024;-61
2021/05/10 10:08:46;;;;;;;1.20;0.80;;;24.70;42.10;;;;;;5033535;28;20029;-58
2021/05/10 10:11:14;;;;;;;1.20;0.85;;;24.70;42.00;;;;;;5037899;28;20496;-60
2021/05/10 10:13:40;;;;;;;1.55;0.90;;;24.70;41.90;;;;;;5033763;28;20044;-58
2021/05/10 10:16:07;;;;;;;1.23;0.80;;;24.70;41.90;;;;;;5041497;28;20476;-58
2021/05/10 10:18:36;;;;;;;1.30;0.88;;;24.70;41.90;;;;;;5025983;28;20223;-59
2021/05/10 10:21:02;;;;;;;0.90;0.80;;;24.70;41.90;;;;;;5042687;28;20414;-58
2021/05/10 10:23:28;;;;;;;1.67;0.90;;;24.80;42.00;;;;;;5042891;28;20078;-59
2021/05/10 10:25:58;;;;;;;1.73;0.90;;;24.80;42.00;;;;;;5029819;28;20338;-60
2021/05/10 10:28:26;;;;;;;1.83;0.82;;;24.80;41.90;;;;;;5036302;28;20028;-60
2021/05/10 10:31:03;;;;;;;1.73;1.00;;;24.80;41.80;;;;;;5037943;28;20430;-60
2021/05/10 10:33:49;;;;;;;1.70;0.90;;;24.80;41.80;;;;;;5037799;28;20025;-59
2021/05/10 10:36:21;;;;;;;1.20;0.80;;;24.80;41.90;;;;;;5041161;28;20041;-60
2021/05/10 10:38:47;;;;;;;1.02;0.70;;;24.80;41.80;;;;;;5033654;28;20143;-59
2021/05/10 10:41:21;;;;;;;1.00;0.70;;;24.80;41.80;;;;;;5037923;28;20072;-59
2021/05/10 10:43:49;;;;;;;1.33;0.80;;;24.80;41.80;;;;;;5040421;28;20029;-60
2021/05/10 10:46:20;;;;;;;1.65;0.80;;;24.80;42.30;;;;;;5044221;28;20035;-59
2021/05/10 10:48:47;;;;;;;1.67;0.80;;;24.80;41.80;;;;;;5045661;28;20360;-62
2021/05/10 10:51:14;;;;;;;1.63;1.00;;;24.80;41.80;;;;;;5036882;28;20040;-59
2021/05/10 10:53:41;;;;;;;2.45;1.30;;;24.80;41.90;;;;;;5035993;28;20025;-61
2021/05/10 10:56:06;;;;;;;1.20;0.70;;;24.90;41.90;;;;;;5041347;28;20044;-61
2021/05/10 10:58:33;;;;;;;1.23;0.90;;;24.90;41.90;;;;;;5037440;28;20030;-58
2021/05/10 11:01:14;;;;;;;1.35;0.77;;;24.90;41.90;;;;;;5037821;28;20385;-60
2021/05/10 11:03:41;;;;;;;1.15;0.82;;;24.90;41.90;;;;;;5041340;28;20021;-60
2021/05/10 11:06:07;;;;;;;0.98;0.70;;;24.90;41.80;;;;;;5041499;28;20072;-58
2021/05/10 11:08:46;;;;;;;1.20;0.85;;;24.90;41.80;;;;;;5037929;28;20115;-59
2021/05/10 11:11:33;;;;;;;1.42;0.80;;;24.90;41.80;;;;;;5039112;28;20036;-61
2021/05/10 11:14:00;;;;;;;1.65;0.80;;;24.90;41.80;;;;;;5044184;28;20041;-62
2021/05/10 11:16:45;;;;;;;1.25;0.80;;;24.90;41.80;;;;;;5048457;28;20033;-60
2021/05/10 11:19:33;;;;;;;1.40;0.90;;;24.90;41.80;;;;;;5049692;28;20029;-59
2021/05/10 11:22:01;;;;;;;1.20;0.90;;;24.90;41.70;;;;;;5043574;28;20035;-56
2021/05/10 11:24:32;;;;;;;1.20;0.77;;;25.00;42.30;;;;;;5045743;28;20033;-60
2021/05/10 11:27:01;;;;;;;1.20;0.85;;;25.00;41.80;;;;;;5041683;28;20029;-59
2021/05/10 11:29:28;;;;;;;;;;;25.00;42.00;;;;;;5044761;28;20036;-59
2021/05/10 11:31:58;;;;;;;1.20;0.80;;;25.00;42.10;;;;;;5040712;28;20321;-62
2021/05/10 11:34:30;;;;;;;1.05;0.80;;;25.00;42.00;;;;;;5052069;28;20017;-59
2021/05/10 11:36:59;;;;;;;2.65;1.00;;;25.00;42.40;;;;;;5048223;28;20103;-62
2021/05/10 11:39:29;;;;;;;1.65;0.90;;;25.10;41.90;;;;;;5043387;28;20022;-60
2021/05/10 11:42:12;;;;;;;1.67;0.88;;;25.10;41.90;;;;;;5040768;28;20332;-59
2021/05/10 11:44:45;;;;;;;1.52;0.80;;;25.10;41.90;;;;;;5048419;28;20567;-59
2021/05/10 11:47:12;;;;;;;1.33;0.82;;;25.10;42.50;;;;;;5055108;28;20040;-59
2021/05/10 11:49:49;;;;;;;2.90;1.10;;;25.10;41.90;;;;;;5047987;28;20368;-62
2021/05/10 11:52:21;;;;;;;1.23;0.80;;;25.10;41.90;;;;;;5060538;28;20021;-59
2021/05/10 11:54:52;;;;;;;4.13;0.90;;;25.10;42.00;;;;;;5057361;28;20021;-59
2021/05/10 11:57:30;;;;;;;3.45;1.08;;;25.10;41.90;;;;;;5062832;28;20033;-61
2021/05/10 12:00:00;;;;;;;2.05;0.90;;;25.10;41.90;;;;;;5059844;28;20115;-59
2021/05/10 12:02:29;;;;;;;2.00;0.80;;;25.10;41.90;;;;;;5058417;28;20041;-60
2021/05/10 12:05:12;;;;;;;1.23;0.83;;;25.20;42.00;;;;;;5042822;28;20029;-61
2021/05/10 12:07:38;;;;;;;1.15;0.80;;;25.20;41.90;;;;;;5034908;28;20154;-56
2021/05/10 12:10:11;;;;;;;2.08;0.85;;;25.20;42.10;;;;;;5045269;28;20468;-61
2021/05/10 12:12:48;;;;;;;1.88;0.80;;;25.20;42.10;;;;;;5046763;28;20416;-61
2021/05/10 12:15:18;;;;;;;2.05;0.80;;;25.20;42.00;;;;;;5043788;28;20032;-60
2021/05/10 12:17:52;;;;;;;1.83;0.80;;;25.30;42.00;;;;;;5038468;28;20025;-60
2021/05/10 12:20:21;;;;;;;1.80;0.80;;;25.30;41.90;;;;;;5047166;28;20079;-62
2021/05/10 12:22:55;;;;;;;2.25;0.90;;;25.20;42.00;;;;;;5044906;28;20511;-59
2021/05/10 12:25:35;;;;;;;2.17;0.88;;;25.30;42.00;;;;;;5045621;28;20052;-59
2021/05/10 12:28:16;;;;;;;1.45;0.80;;;25.30;42.00;;;;;;5044635;28;20069;-61
2021/05/10 12:30:41;;;;;;;4.18;0.90;;;25.30;42.10;;;;;;5039417;28;20575;-60
2021/05/10 12:33:12;;;;;;;2.42;0.90;;;25.30;42.10;;;;;;5054921;28;20032;-61
2021/05/10 12:35:43;;;;;;;1.85;0.90;;;25.30;42.40;;;;;;5047372;28;20104;-61
2021/05/10 12:38:10;;;;;;;1.27;0.88;;;25.40;42.00;;;;;;5043668;28;20040;-60
2021/05/10 12:40:41;;;;;;;1.77;0.80;;;25.40;42.10;;;;;;5051510;28;20403;-59
2021/05/10 12:43:09;;;;;;;1.20;0.90;;;25.40;42.00;;;;;;5056183;28;20033;-62
2021/05/10 12:45:36;;;;;;;1.42;0.82;;;25.40;42.00;;;;;;5042752;28;20043;-59
2021/05/10 12:48:16;;;;;;;2.33;1.05;;;25.40;42.00;;;;;;5053038;28;20061;-59
2021/05/10 12:50:48;;;;;;;3.38;0.93;;;25.40;42.00;;;;;;5050858;28;20025;-60
2021/05/10 12:53:15;;;;;;;2.05;0.88;;;25.40;41.90;;;;;;5051235;28;20028;-61
2021/05/10 12:55:42;;;;;;;2.25;0.95;;;25.40;41.90;;;;;;5043340;28;20031;-60
2021/05/10 12:58:26;;;;;;;1.52;0.90;;;25.40;41.90;;;;;;5038918;28;20040;-61
2021/05/10 13:00:53;;;;;;;2.28;0.90;;;25.40;41.80;;;;;;5045562;28;20041;-58